sensor_id;sensor_type;location;lat;lon;timestamp;P1;durP1;ratioP1;P2;durP2;ratioP2
23302;SDS011;11820;48.738;9.092;2023-02-28T00:02:10;3.87;;;2.57;;
23302;SDS011;11820;48.738;9.092;2023-02-28T00:04:35;3.67;;;2.17;;
23302;SDS011;11820;48.738;9.092;2023-02-28T00:07:01;2.60;;;2.00;;
23302;SDS011;11820;48.738;9.092;2023-02-28T00:09:26;3.07;;;2.07;;
23302;SDS011;11820;48.738;9.092;2023-02-28T00:11:51;2.37;;;2.03;;
23302;SDS011;11820;48.738;9.092;2023-02-28T00:14:16;5.00;;;2.57;;
23302;SDS011;11820;48.738;9.092;2023-02-28T00:16:42;3.07;;;2.43;;
23302;SDS011;11820;48.738;9.092;2023-02-28T00:19:07;3.47;;;2.33;;
23302;SDS011;11820;48.738;9.092;2023-02-28T00:21:32;5.10;;;2.13;;
23302;SDS011;11820;48.738;9.092;2023-02-28T00:23:58;4.20;;;2.67;;
23302;SDS011;11820;48.738;9.092;2023-02-28T00:26:23;4.70;;;1.97;;
23302;SDS011;11820;48.738;9.092;2023-02-28T00:28:48;3.30;;;2.20;;
23302;SDS011;11820;48.738;9.092;2023-02-28T00:31:14;2.73;;;2.40;;
23302;SDS011;11820;48.738;9.092;2023-02-28T00:33:39;2.80;;;2.00;;
23302;SDS011;11820;48.738;9.092;2023-02-28T00:36:05;3.33;;;2.10;;
23302;SDS011;11820;48.738;9.092;2023-02-28T00:38:33;4.20;;;2.30;;
23302;SDS011;11820;48.738;9.092;2023-02-28T00:40:59;2.93;;;2.03;;
23302;SDS011;11820;48.738;9.092;2023-02-28T00:43:29;2.83;;;2.27;;
23302;SDS011;11820;48.738;9.092;2023-02-28T00:45:55;2.30;;;2.10;;
23302;SDS011;11820;48.738;9.092;2023-02-28T00:48:20;3.40;;;2.17;;
23302;SDS011;11820;48.738;9.092;2023-02-28T00:50:48;3.07;;;2.10;;
23302;SDS011;11820;48.738;9.092;2023-02-28T00:53:14;5.00;;;2.40;;
23302;SDS011;11820;48.738;9.092;2023-02-28T00:55:39;6.87;;;2.93;;
23302;SDS011;11820;48.738;9.092;2023-02-28T00:58:04;3.70;;;2.40;;
23302;SDS011;11820;48.738;9.092;2023-02-28T01:00:30;2.50;;;2.30;;
23302;SDS011;11820;48.738;9.092;2023-02-28T01:02:55;3.47;;;2.23;;
23302;SDS011;11820;48.738;9.092;2023-02-28T01:05:21;3.27;;;2.37;;
23302;SDS011;11820;48.738;9.092;2023-02-28T01:07:46;3.13;;;2.40;;
23302;SDS011;11820;48.738;9.092;2023-02-28T01:10:11;2.50;;;2.17;;
23302;SDS011;11820;48.738;9.092;2023-02-28T01:12:37;2.97;;;2.13;;
23302;SDS011;11820;48.738;9.092;2023-02-28T01:15:02;3.17;;;2.20;;
23302;SDS011;11820;48.738;9.092;2023-02-28T01:17:28;3.37;;;2.33;;
23302;SDS011;11820;48.738;9.092;2023-02-28T01:19:54;3.87;;;2.40;;
23302;SDS011;11820;48.738;9.092;2023-02-28T01:22:20;3.33;;;2.60;;
23302;SDS011;11820;48.738;9.092;2023-02-28T01:24:46;4.03;;;2.43;;
23302;SDS011;11820;48.738;9.092;2023-02-28T01:27:11;4.77;;;2.70;;
23302;SDS011;11820;48.738;9.092;2023-02-28T01:29:37;4.40;;;2.70;;
23302;SDS011;11820;48.738;9.092;2023-02-28T01:32:02;4.77;;;2.70;;
23302;SDS011;11820;48.738;9.092;2023-02-28T01:34:27;4.33;;;2.70;;
23302;SDS011;11820;48.738;9.092;2023-02-28T01:36:53;3.13;;;2.60;;
23302;SDS011;11820;48.738;9.092;2023-02-28T01:39:18;5.23;;;2.60;;
23302;SDS011;11820;48.738;9.092;2023-02-28T01:41:43;4.13;;;3.00;;
23302;SDS011;11820;48.738;9.092;2023-02-28T01:47:11;2.73;;;2.40;;
23302;SDS011;11820;48.738;9.092;2023-02-28T01:49:37;3.17;;;2.53;;
23302;SDS011;11820;48.738;9.092;2023-02-28T01:52:03;2.87;;;2.47;;
23302;SDS011;11820;48.738;9.092;2023-02-28T01:54:29;3.27;;;2.50;;
23302;SDS011;11820;48.738;9.092;2023-02-28T01:56:58;4.00;;;2.60;;
23302;SDS011;11820;48.738;9.092;2023-02-28T01:59:37;3.63;;;3.03;;
23302;SDS011;11820;48.738;9.092;2023-02-28T02:02:11;5.10;;;3.00;;
23302;SDS011;11820;48.738;9.092;2023-02-28T02:04:41;5.20;;;2.97;;
23302;SDS011;11820;48.738;9.092;2023-02-28T02:07:15;5.87;;;3.40;;
23302;SDS011;11820;48.738;9.092;2023-02-28T02:09:41;3.67;;;2.80;;
23302;SDS011;11820;48.738;9.092;2023-02-28T02:12:27;4.77;;;3.27;;
23302;SDS011;11820;48.738;9.092;2023-02-28T02:15:10;3.53;;;3.03;;
23302;SDS011;11820;48.738;9.092;2023-02-28T02:17:51;4.97;;;3.43;;
23302;SDS011;11820;48.738;9.092;2023-02-28T02:20:43;4.13;;;3.20;;
23302;SDS011;11820;48.738;9.092;2023-02-28T02:23:26;5.93;;;3.57;;
23302;SDS011;11820;48.738;9.092;2023-02-28T02:25:54;3.50;;;3.03;;
23302;SDS011;11820;48.738;9.092;2023-02-28T02:28:30;3.63;;;3.13;;
23302;SDS011;11820;48.738;9.092;2023-02-28T02:31:26;4.37;;;3.10;;
23302;SDS011;11820;48.738;9.092;2023-02-28T02:36:51;4.57;;;3.10;;
23302;SDS011;11820;48.738;9.092;2023-02-28T02:42:19;3.77;;;3.27;;
23302;SDS011;11820;48.738;9.092;2023-02-28T02:45:03;3.90;;;3.33;;
23302;SDS011;11820;48.738;9.092;2023-02-28T02:47:35;3.77;;;3.03;;
23302;SDS011;11820;48.738;9.092;2023-02-28T02:50:03;6.80;;;3.50;;
23302;SDS011;11820;48.738;9.092;2023-02-28T02:52:33;4.97;;;3.60;;
23302;SDS011;11820;48.738;9.092;2023-02-28T02:55:03;4.10;;;3.20;;
23302;SDS011;11820;48.738;9.092;2023-02-28T02:57:51;7.00;;;4.00;;
23302;SDS011;11820;48.738;9.092;2023-02-28T03:00:21;4.00;;;3.50;;
23302;SDS011;11820;48.738;9.092;2023-02-28T03:02:52;4.00;;;3.27;;
23302;SDS011;11820;48.738;9.092;2023-02-28T03:05:24;3.50;;;3.10;;
23302;SDS011;11820;48.738;9.092;2023-02-28T03:07:53;3.37;;;3.07;;
23302;SDS011;11820;48.738;9.092;2023-02-28T03:10:29;4.47;;;3.40;;
23302;SDS011;11820;48.738;9.092;2023-02-28T03:15:54;5.33;;;3.90;;
23302;SDS011;11820;48.738;9.092;2023-02-28T03:18:40;4.77;;;3.73;;
23302;SDS011;11820;48.738;9.092;2023-02-28T03:21:14;4.10;;;3.67;;
23302;SDS011;11820;48.738;9.092;2023-02-28T03:23:46;4.13;;;3.37;;
23302;SDS011;11820;48.738;9.092;2023-02-28T03:26:21;5.30;;;4.13;;
23302;SDS011;11820;48.738;9.092;2023-02-28T03:31:21;5.47;;;3.33;;
23302;SDS011;11820;48.738;9.092;2023-02-28T03:33:55;4.07;;;3.60;;
23302;SDS011;11820;48.738;9.092;2023-02-28T03:36:24;6.10;;;3.90;;
23302;SDS011;11820;48.738;9.092;2023-02-28T03:39:08;7.40;;;4.20;;
23302;SDS011;11820;48.738;9.092;2023-02-28T03:41:41;11.17;;;4.10;;
23302;SDS011;11820;48.738;9.092;2023-02-28T03:44:17;4.97;;;4.00;;
23302;SDS011;11820;48.738;9.092;2023-02-28T03:46:50;5.73;;;4.37;;
23302;SDS011;11820;48.738;9.092;2023-02-28T03:49:37;4.50;;;3.53;;
23302;SDS011;11820;48.738;9.092;2023-02-28T03:52:12;3.77;;;3.40;;
23302;SDS011;11820;48.738;9.092;2023-02-28T03:54:42;5.33;;;3.57;;
23302;SDS011;11820;48.738;9.092;2023-02-28T03:57:26;4.73;;;4.03;;
23302;SDS011;11820;48.738;9.092;2023-02-28T04:00:06;4.70;;;3.83;;
23302;SDS011;11820;48.738;9.092;2023-02-28T04:02:39;5.90;;;4.00;;
23302;SDS011;11820;48.738;9.092;2023-02-28T04:05:05;6.47;;;4.63;;
23302;SDS011;11820;48.738;9.092;2023-02-28T04:07:32;5.57;;;4.03;;
23302;SDS011;11820;48.738;9.092;2023-02-28T04:09:57;9.13;;;4.57;;
23302;SDS011;11820;48.738;9.092;2023-02-28T04:12:23;6.63;;;4.53;;
23302;SDS011;11820;48.738;9.092;2023-02-28T04:14:49;5.07;;;4.13;;
23302;SDS011;11820;48.738;9.092;2023-02-28T04:17:15;5.93;;;4.53;;
23302;SDS011;11820;48.738;9.092;2023-02-28T04:19:41;5.30;;;3.90;;
23302;SDS011;11820;48.738;9.092;2023-02-28T04:22:07;5.63;;;4.43;;
23302;SDS011;11820;48.738;9.092;2023-02-28T04:24:34;5.10;;;4.03;;
23302;SDS011;11820;48.738;9.092;2023-02-28T04:26:59;5.63;;;4.27;;
23302;SDS011;11820;48.738;9.092;2023-02-28T04:29:26;6.13;;;4.67;;
23302;SDS011;11820;48.738;9.092;2023-02-28T04:31:58;5.23;;;4.30;;
23302;SDS011;11820;48.738;9.092;2023-02-28T04:34:28;6.20;;;4.60;;
23302;SDS011;11820;48.738;9.092;2023-02-28T04:36:55;6.37;;;4.70;;
23302;SDS011;11820;48.738;9.092;2023-02-28T04:39:21;4.73;;;4.20;;
23302;SDS011;11820;48.738;9.092;2023-02-28T04:41:46;8.50;;;5.00;;
23302;SDS011;11820;48.738;9.092;2023-02-28T04:44:12;4.87;;;4.33;;
23302;SDS011;11820;48.738;9.092;2023-02-28T04:46:38;7.53;;;4.57;;
23302;SDS011;11820;48.738;9.092;2023-02-28T04:49:03;6.40;;;4.37;;
23302;SDS011;11820;48.738;9.092;2023-02-28T04:51:28;6.50;;;4.60;;
23302;SDS011;11820;48.738;9.092;2023-02-28T04:53:54;5.53;;;4.80;;
23302;SDS011;11820;48.738;9.092;2023-02-28T04:56:19;5.87;;;4.63;;
23302;SDS011;11820;48.738;9.092;2023-02-28T04:58:46;4.90;;;4.50;;
23302;SDS011;11820;48.738;9.092;2023-02-28T05:03:51;7.50;;;4.93;;
23302;SDS011;11820;48.738;9.092;2023-02-28T05:06:18;7.30;;;4.90;;
23302;SDS011;11820;48.738;9.092;2023-02-28T05:08:45;5.70;;;4.83;;
23302;SDS011;11820;48.738;9.092;2023-02-28T05:11:32;7.90;;;5.50;;
23302;SDS011;11820;48.738;9.092;2023-02-28T05:14:00;6.93;;;4.57;;
23302;SDS011;11820;48.738;9.092;2023-02-28T05:16:30;5.40;;;4.90;;
23302;SDS011;11820;48.738;9.092;2023-02-28T05:18:56;6.10;;;4.70;;
23302;SDS011;11820;48.738;9.092;2023-02-28T05:21:29;5.73;;;5.17;;
23302;SDS011;11820;48.738;9.092;2023-02-28T05:23:56;7.47;;;5.23;;
23302;SDS011;11820;48.738;9.092;2023-02-28T05:26:23;5.23;;;4.63;;
23302;SDS011;11820;48.738;9.092;2023-02-28T05:28:48;7.27;;;4.97;;
23302;SDS011;11820;48.738;9.092;2023-02-28T05:31:14;7.60;;;5.17;;
23302;SDS011;11820;48.738;9.092;2023-02-28T05:33:40;5.60;;;5.00;;
23302;SDS011;11820;48.738;9.092;2023-02-28T05:36:05;5.10;;;4.60;;
23302;SDS011;11820;48.738;9.092;2023-02-28T05:38:31;9.93;;;6.27;;
23302;SDS011;11820;48.738;9.092;2023-02-28T05:40:57;10.20;;;6.50;;
23302;SDS011;11820;48.738;9.092;2023-02-28T05:43:22;6.30;;;5.53;;
23302;SDS011;11820;48.738;9.092;2023-02-28T05:45:48;5.93;;;5.33;;
23302;SDS011;11820;48.738;9.092;2023-02-28T05:48:13;7.93;;;5.53;;
23302;SDS011;11820;48.738;9.092;2023-02-28T05:50:38;6.20;;;5.60;;
23302;SDS011;11820;48.738;9.092;2023-02-28T05:53:04;9.27;;;6.00;;
23302;SDS011;11820;48.738;9.092;2023-02-28T05:55:30;7.63;;;5.80;;
23302;SDS011;11820;48.738;9.092;2023-02-28T05:57:55;7.63;;;6.03;;
23302;SDS011;11820;48.738;9.092;2023-02-28T06:00:21;7.10;;;5.50;;
23302;SDS011;11820;48.738;9.092;2023-02-28T06:02:47;8.60;;;5.63;;
23302;SDS011;11820;48.738;9.092;2023-02-28T06:05:16;6.17;;;5.57;;
23302;SDS011;11820;48.738;9.092;2023-02-28T06:07:43;7.30;;;6.30;;
23302;SDS011;11820;48.738;9.092;2023-02-28T06:10:09;6.77;;;5.80;;
23302;SDS011;11820;48.738;9.092;2023-02-28T06:12:35;9.07;;;6.00;;
23302;SDS011;11820;48.738;9.092;2023-02-28T06:15:01;7.83;;;5.80;;
23302;SDS011;11820;48.738;9.092;2023-02-28T06:17:26;9.07;;;6.40;;
23302;SDS011;11820;48.738;9.092;2023-02-28T06:19:52;7.10;;;6.10;;
23302;SDS011;11820;48.738;9.092;2023-02-28T06:22:17;7.77;;;6.43;;
23302;SDS011;11820;48.738;9.092;2023-02-28T06:24:42;8.73;;;6.33;;
23302;SDS011;11820;48.738;9.092;2023-02-28T06:27:08;8.03;;;6.53;;
23302;SDS011;11820;48.738;9.092;2023-02-28T06:29:33;6.93;;;5.97;;
23302;SDS011;11820;48.738;9.092;2023-02-28T06:31:59;9.20;;;6.43;;
23302;SDS011;11820;48.738;9.092;2023-02-28T06:34:25;7.53;;;6.40;;
23302;SDS011;11820;48.738;9.092;2023-02-28T06:36:50;8.13;;;7.10;;
23302;SDS011;11820;48.738;9.092;2023-02-28T06:39:16;10.07;;;6.23;;
23302;SDS011;11820;48.738;9.092;2023-02-28T06:41:42;10.00;;;6.10;;
23302;SDS011;11820;48.738;9.092;2023-02-28T06:44:12;8.73;;;6.60;;
23302;SDS011;11820;48.738;9.092;2023-02-28T06:46:41;10.70;;;7.20;;
23302;SDS011;11820;48.738;9.092;2023-02-28T06:49:08;8.60;;;7.17;;
23302;SDS011;11820;48.738;9.092;2023-02-28T06:51:34;9.73;;;6.43;;
23302;SDS011;11820;48.738;9.092;2023-02-28T06:54:00;8.23;;;6.13;;
23302;SDS011;11820;48.738;9.092;2023-02-28T06:56:25;7.17;;;6.43;;
23302;SDS011;11820;48.738;9.092;2023-02-28T06:58:51;8.43;;;6.30;;
23302;SDS011;11820;48.738;9.092;2023-02-28T07:01:17;7.83;;;6.03;;
23302;SDS011;11820;48.738;9.092;2023-02-28T07:03:43;12.77;;;7.67;;
23302;SDS011;11820;48.738;9.092;2023-02-28T07:06:09;6.93;;;6.17;;
23302;SDS011;11820;48.738;9.092;2023-02-28T07:08:35;8.77;;;6.63;;
23302;SDS011;11820;48.738;9.092;2023-02-28T07:11:00;8.70;;;6.27;;
23302;SDS011;11820;48.738;9.092;2023-02-28T07:13:27;9.73;;;6.60;;
23302;SDS011;11820;48.738;9.092;2023-02-28T07:15:53;8.87;;;6.30;;
23302;SDS011;11820;48.738;9.092;2023-02-28T07:18:22;12.43;;;7.20;;
23302;SDS011;11820;48.738;9.092;2023-02-28T07:20:48;12.03;;;6.97;;
23302;SDS011;11820;48.738;9.092;2023-02-28T07:23:13;11.27;;;6.90;;
23302;SDS011;11820;48.738;9.092;2023-02-28T07:25:39;7.43;;;6.60;;
23302;SDS011;11820;48.738;9.092;2023-02-28T07:28:04;9.00;;;7.03;;
23302;SDS011;11820;48.738;9.092;2023-02-28T07:30:30;10.60;;;6.90;;
23302;SDS011;11820;48.738;9.092;2023-02-28T07:32:55;10.93;;;7.00;;
23302;SDS011;11820;48.738;9.092;2023-02-28T07:35:21;8.83;;;7.00;;
23302;SDS011;11820;48.738;9.092;2023-02-28T07:37:47;9.90;;;6.50;;
23302;SDS011;11820;48.738;9.092;2023-02-28T07:40:12;13.17;;;7.07;;
23302;SDS011;11820;48.738;9.092;2023-02-28T07:42:39;8.30;;;6.97;;
23302;SDS011;11820;48.738;9.092;2023-02-28T07:45:06;9.23;;;7.43;;
23302;SDS011;11820;48.738;9.092;2023-02-28T07:47:33;8.77;;;7.10;;
23302;SDS011;11820;48.738;9.092;2023-02-28T07:49:59;8.30;;;6.77;;
23302;SDS011;11820;48.738;9.092;2023-02-28T07:52:24;10.17;;;7.10;;
23302;SDS011;11820;48.738;9.092;2023-02-28T07:54:50;9.70;;;7.57;;
23302;SDS011;11820;48.738;9.092;2023-02-28T07:57:16;9.30;;;7.33;;
23302;SDS011;11820;48.738;9.092;2023-02-28T07:59:41;9.57;;;7.77;;
23302;SDS011;11820;48.738;9.092;2023-02-28T08:02:12;8.87;;;7.83;;
23302;SDS011;11820;48.738;9.092;2023-02-28T08:04:39;9.80;;;7.53;;
23302;SDS011;11820;48.738;9.092;2023-02-28T08:07:04;12.73;;;7.07;;
23302;SDS011;11820;48.738;9.092;2023-02-28T08:09:29;10.37;;;8.40;;
23302;SDS011;11820;48.738;9.092;2023-02-28T08:11:55;13.63;;;8.67;;
23302;SDS011;11820;48.738;9.092;2023-02-28T08:14:20;8.00;;;7.20;;
23302;SDS011;11820;48.738;9.092;2023-02-28T08:16:46;8.90;;;7.97;;
23302;SDS011;11820;48.738;9.092;2023-02-28T08:19:11;11.20;;;7.43;;
23302;SDS011;11820;48.738;9.092;2023-02-28T08:21:36;11.83;;;8.83;;
23302;SDS011;11820;48.738;9.092;2023-02-28T08:24:01;9.90;;;8.13;;
23302;SDS011;11820;48.738;9.092;2023-02-28T08:26:27;12.63;;;8.47;;
23302;SDS011;11820;48.738;9.092;2023-02-28T08:28:52;12.43;;;7.97;;
23302;SDS011;11820;48.738;9.092;2023-02-28T08:31:18;10.23;;;8.20;;
23302;SDS011;11820;48.738;9.092;2023-02-28T08:33:44;9.13;;;7.40;;
23302;SDS011;11820;48.738;9.092;2023-02-28T08:36:10;11.57;;;8.23;;
23302;SDS011;11820;48.738;9.092;2023-02-28T08:38:36;13.70;;;8.47;;
23302;SDS011;11820;48.738;9.092;2023-02-28T08:41:06;10.57;;;7.77;;
23302;SDS011;11820;48.738;9.092;2023-02-28T08:43:34;10.70;;;7.73;;
23302;SDS011;11820;48.738;9.092;2023-02-28T08:46:00;10.45;;;7.97;;
23302;SDS011;11820;48.738;9.092;2023-02-28T08:48:26;10.43;;;8.77;;
23302;SDS011;11820;48.738;9.092;2023-02-28T08:51:03;9.13;;;8.10;;
23302;SDS011;11820;48.738;9.092;2023-02-28T08:53:34;10.53;;;7.93;;
23302;SDS011;11820;48.738;9.092;2023-02-28T08:56:04;11.00;;;8.27;;
23302;SDS011;11820;48.738;9.092;2023-02-28T08:58:31;9.77;;;8.60;;
23302;SDS011;11820;48.738;9.092;2023-02-28T09:00:57;9.57;;;7.93;;
23302;SDS011;11820;48.738;9.092;2023-02-28T09:03:22;10.03;;;7.77;;
23302;SDS011;11820;48.738;9.092;2023-02-28T09:05:52;10.40;;;8.00;;
23302;SDS011;11820;48.738;9.092;2023-02-28T09:08:19;10.43;;;8.03;;
23302;SDS011;11820;48.738;9.092;2023-02-28T09:10:44;11.80;;;7.67;;
23302;SDS011;11820;48.738;9.092;2023-02-28T09:13:09;12.07;;;8.20;;
23302;SDS011;11820;48.738;9.092;2023-02-28T09:15:36;9.63;;;7.93;;
23302;SDS011;11820;48.738;9.092;2023-02-28T09:18:02;11.57;;;8.40;;
23302;SDS011;11820;48.738;9.092;2023-02-28T09:20:28;10.53;;;8.23;;
23302;SDS011;11820;48.738;9.092;2023-02-28T09:22:53;9.73;;;7.50;;
23302;SDS011;11820;48.738;9.092;2023-02-28T09:25:18;9.13;;;7.80;;
23302;SDS011;11820;48.738;9.092;2023-02-28T09:27:43;9.40;;;8.33;;
23302;SDS011;11820;48.738;9.092;2023-02-28T09:30:10;9.00;;;8.00;;
23302;SDS011;11820;48.738;9.092;2023-02-28T09:32:36;9.53;;;8.17;;
23302;SDS011;11820;48.738;9.092;2023-02-28T09:35:01;10.27;;;7.90;;
23302;SDS011;11820;48.738;9.092;2023-02-28T09:37:27;12.07;;;7.90;;
23302;SDS011;11820;48.738;9.092;2023-02-28T09:39:54;9.53;;;8.17;;
23302;SDS011;11820;48.738;9.092;2023-02-28T09:42:31;12.15;;;9.20;;
23302;SDS011;11820;48.738;9.092;2023-02-28T09:44:58;11.00;;;8.10;;
23302;SDS011;11820;48.738;9.092;2023-02-28T09:49:58;17.93;;;9.07;;
23302;SDS011;11820;48.738;9.092;2023-02-28T09:52:36;9.27;;;7.53;;
23302;SDS011;11820;48.738;9.092;2023-02-28T09:55:18;12.27;;;8.67;;
23302;SDS011;11820;48.738;9.092;2023-02-28T09:58:00;10.47;;;8.17;;
23302;SDS011;11820;48.738;9.092;2023-02-28T10:00:30;10.43;;;8.10;;
23302;SDS011;11820;48.738;9.092;2023-02-28T10:08:29;10.40;;;8.30;;
23302;SDS011;11820;48.738;9.092;2023-02-28T10:11:00;12.63;;;8.80;;
23302;SDS011;11820;48.738;9.092;2023-02-28T10:16:11;13.97;;;8.67;;
23302;SDS011;11820;48.738;9.092;2023-02-28T10:18:51;10.33;;;7.73;;
23302;SDS011;11820;48.738;9.092;2023-02-28T10:21:24;9.47;;;8.07;;
23302;SDS011;11820;48.738;9.092;2023-02-28T10:23:57;10.60;;;8.20;;
23302;SDS011;11820;48.738;9.092;2023-02-28T10:26:27;9.67;;;8.40;;
23302;SDS011;11820;48.738;9.092;2023-02-28T10:28:55;11.60;;;7.97;;
23302;SDS011;11820;48.738;9.092;2023-02-28T10:31:20;10.37;;;8.60;;
23302;SDS011;11820;48.738;9.092;2023-02-28T10:33:46;9.33;;;8.27;;
23302;SDS011;11820;48.738;9.092;2023-02-28T10:36:13;10.33;;;8.27;;
23302;SDS011;11820;48.738;9.092;2023-02-28T10:38:42;12.47;;;8.40;;
23302;SDS011;11820;48.738;9.092;2023-02-28T10:41:09;11.30;;;8.83;;
23302;SDS011;11820;48.738;9.092;2023-02-28T10:43:38;10.80;;;8.53;;
23302;SDS011;11820;48.738;9.092;2023-02-28T10:51:04;12.23;;;8.77;;
23302;SDS011;11820;48.738;9.092;2023-02-28T10:53:33;12.47;;;8.70;;
23302;SDS011;11820;48.738;9.092;2023-02-28T11:01:36;12.60;;;8.70;;
23302;SDS011;11820;48.738;9.092;2023-02-28T11:09:31;11.27;;;8.93;;
23302;SDS011;11820;48.738;9.092;2023-02-28T11:12:00;10.47;;;9.10;;
23302;SDS011;11820;48.738;9.092;2023-02-28T11:14:30;12.43;;;8.33;;
23302;SDS011;11820;48.738;9.092;2023-02-28T11:17:00;10.57;;;8.97;;
23302;SDS011;11820;48.738;9.092;2023-02-28T11:19:39;11.87;;;8.47;;
23302;SDS011;11820;48.738;9.092;2023-02-28T11:22:09;9.43;;;8.43;;
23302;SDS011;11820;48.738;9.092;2023-02-28T11:24:42;10.37;;;8.77;;
23302;SDS011;11820;48.738;9.092;2023-02-28T11:29:54;10.60;;;8.47;;
23302;SDS011;11820;48.738;9.092;2023-02-28T11:32:20;13.30;;;8.40;;
23302;SDS011;11820;48.738;9.092;2023-02-28T11:34:59;9.53;;;8.47;;
23302;SDS011;11820;48.738;9.092;2023-02-28T11:37:28;12.07;;;8.97;;
23302;SDS011;11820;48.738;9.092;2023-02-28T11:39:55;12.63;;;8.80;;
23302;SDS011;11820;48.738;9.092;2023-02-28T11:45:49;10.87;;;9.23;;
23302;SDS011;11820;48.738;9.092;2023-02-28T12:07:38;9.80;;;7.60;;
23302;SDS011;11820;48.738;9.092;2023-02-28T12:10:29;8.10;;;7.30;;
23302;SDS011;11820;48.738;9.092;2023-02-28T12:15:59;8.17;;;7.33;;
23302;SDS011;11820;48.738;9.092;2023-02-28T12:18:40;8.77;;;7.23;;
23302;SDS011;11820;48.738;9.092;2023-02-28T12:23:54;10.53;;;7.63;;
23302;SDS011;11820;48.738;9.092;2023-02-28T12:26:38;8.73;;;7.57;;
23302;SDS011;11820;48.738;9.092;2023-02-28T12:29:12;8.20;;;7.37;;
23302;SDS011;11820;48.738;9.092;2023-02-28T12:31:40;8.97;;;8.07;;
23302;SDS011;11820;48.738;9.092;2023-02-28T12:34:11;8.93;;;6.90;;
23302;SDS011;11820;48.738;9.092;2023-02-28T12:36:41;10.73;;;8.20;;
23302;SDS011;11820;48.738;9.092;2023-02-28T12:39:19;7.70;;;7.00;;
23302;SDS011;11820;48.738;9.092;2023-02-28T12:44:35;11.17;;;8.20;;
23302;SDS011;11820;48.738;9.092;2023-02-28T12:47:16;8.57;;;7.57;;
23302;SDS011;11820;48.738;9.092;2023-02-28T12:49:49;8.37;;;7.27;;
23302;SDS011;11820;48.738;9.092;2023-02-28T12:52:23;8.03;;;7.23;;
23302;SDS011;11820;48.738;9.092;2023-02-28T12:55:00;8.40;;;7.23;;
23302;SDS011;11820;48.738;9.092;2023-02-28T13:00:38;10.40;;;7.67;;
23302;SDS011;11820;48.738;9.092;2023-02-28T13:06:05;7.97;;;7.17;;
23302;SDS011;11820;48.738;9.092;2023-02-28T13:11:38;8.57;;;7.67;;
23302;SDS011;11820;48.738;9.092;2023-02-28T13:14:06;8.83;;;7.23;;
23302;SDS011;11820;48.738;9.092;2023-02-28T13:16:51;8.50;;;7.00;;
23302;SDS011;11820;48.738;9.092;2023-02-28T13:19:22;7.70;;;6.40;;
23302;SDS011;11820;48.738;9.092;2023-02-28T13:21:50;8.03;;;6.87;;
23302;SDS011;11820;48.738;9.092;2023-02-28T13:24:36;10.13;;;7.77;;
23302;SDS011;11820;48.738;9.092;2023-02-28T13:29:42;8.00;;;7.20;;
23302;SDS011;11820;48.738;9.092;2023-02-28T13:37:46;8.07;;;7.27;;
23302;SDS011;11820;48.738;9.092;2023-02-28T13:39:50;8.33;;;7.07;;
23302;SDS011;11820;48.738;9.092;2023-02-28T13:47:40;9.20;;;7.07;;
23302;SDS011;11820;48.738;9.092;2023-02-28T13:55:46;10.07;;;7.57;;
23302;SDS011;11820;48.738;9.092;2023-02-28T14:07:06;8.53;;;7.60;;
23302;SDS011;11820;48.738;9.092;2023-02-28T14:09:40;10.50;;;7.77;;
23302;SDS011;11820;48.738;9.092;2023-02-28T14:17:58;6.93;;;6.17;;
23302;SDS011;11820;48.738;9.092;2023-02-28T14:20:27;8.00;;;7.20;;
23302;SDS011;11820;48.738;9.092;2023-02-28T14:26:01;9.03;;;7.17;;
23302;SDS011;11820;48.738;9.092;2023-02-28T14:31:54;7.67;;;6.90;;
23302;SDS011;11820;48.738;9.092;2023-02-28T14:34:45;10.70;;;7.10;;
23302;SDS011;11820;48.738;9.092;2023-02-28T14:37:28;8.40;;;6.80;;
23302;SDS011;11820;48.738;9.092;2023-02-28T14:39:56;8.67;;;6.60;;
23302;SDS011;11820;48.738;9.092;2023-02-28T14:45:00;7.53;;;6.83;;
23302;SDS011;11820;48.738;9.092;2023-02-28T14:47:27;8.63;;;7.73;;
23302;SDS011;11820;48.738;9.092;2023-02-28T14:49:57;7.93;;;7.20;;
23302;SDS011;11820;48.738;9.092;2023-02-28T14:52:24;8.37;;;7.07;;
23302;SDS011;11820;48.738;9.092;2023-02-28T14:55:03;7.67;;;6.73;;
23302;SDS011;11820;48.738;9.092;2023-02-28T14:57:33;11.63;;;8.40;;
23302;SDS011;11820;48.738;9.092;2023-02-28T15:02:45;10.43;;;7.43;;
23302;SDS011;11820;48.738;9.092;2023-02-28T15:07:42;9.60;;;7.70;;
23302;SDS011;11820;48.738;9.092;2023-02-28T15:10:29;11.77;;;7.53;;
23302;SDS011;11820;48.738;9.092;2023-02-28T15:12:59;8.13;;;7.33;;
23302;SDS011;11820;48.738;9.092;2023-02-28T15:15:29;8.93;;;7.83;;
23302;SDS011;11820;48.738;9.092;2023-02-28T15:18:02;8.17;;;7.07;;
23302;SDS011;11820;48.738;9.092;2023-02-28T15:20:32;10.43;;;7.50;;
23302;SDS011;11820;48.738;9.092;2023-02-28T15:22:58;8.00;;;7.20;;
23302;SDS011;11820;48.738;9.092;2023-02-28T15:25:24;8.00;;;7.30;;
23302;SDS011;11820;48.738;9.092;2023-02-28T15:27:54;8.83;;;7.93;;
23302;SDS011;11820;48.738;9.092;2023-02-28T15:30:29;7.73;;;7.03;;
23302;SDS011;11820;48.738;9.092;2023-02-28T15:35:37;7.63;;;6.77;;
23302;SDS011;11820;48.738;9.092;2023-02-28T15:38:04;8.60;;;7.00;;
23302;SDS011;11820;48.738;9.092;2023-02-28T15:40:41;8.43;;;7.10;;
23302;SDS011;11820;48.738;9.092;2023-02-28T15:45:45;8.47;;;7.63;;
23302;SDS011;11820;48.738;9.092;2023-02-28T15:51:01;9.20;;;7.00;;
23302;SDS011;11820;48.738;9.092;2023-02-28T15:53:32;8.60;;;7.27;;
23302;SDS011;11820;48.738;9.092;2023-02-28T15:56:01;8.60;;;7.27;;
23302;SDS011;11820;48.738;9.092;2023-02-28T15:58:29;9.70;;;7.53;;
23302;SDS011;11820;48.738;9.092;2023-02-28T16:01:06;8.77;;;7.87;;
23302;SDS011;11820;48.738;9.092;2023-02-28T16:03:46;11.03;;;8.13;;
23302;SDS011;11820;48.738;9.092;2023-02-28T16:08:51;8.50;;;7.30;;
23302;SDS011;11820;48.738;9.092;2023-02-28T16:11:18;10.17;;;8.10;;
23302;SDS011;11820;48.738;9.092;2023-02-28T16:13:45;9.07;;;8.17;;
23302;SDS011;11820;48.738;9.092;2023-02-28T16:16:14;9.13;;;8.13;;
23302;SDS011;11820;48.738;9.092;2023-02-28T16:18:41;12.73;;;7.93;;
23302;SDS011;11820;48.738;9.092;2023-02-28T16:21:08;9.07;;;8.13;;
23302;SDS011;11820;48.738;9.092;2023-02-28T16:23:33;12.57;;;8.17;;
23302;SDS011;11820;48.738;9.092;2023-02-28T16:25:59;9.57;;;7.60;;
23302;SDS011;11820;48.738;9.092;2023-02-28T16:28:27;10.60;;;8.33;;
23302;SDS011;11820;48.738;9.092;2023-02-28T16:30:57;13.20;;;9.27;;
23302;SDS011;11820;48.738;9.092;2023-02-28T16:33:22;8.67;;;7.77;;
23302;SDS011;11820;48.738;9.092;2023-02-28T16:35:47;9.17;;;8.17;;
23302;SDS011;11820;48.738;9.092;2023-02-28T16:38:13;10.07;;;7.53;;
23302;SDS011;11820;48.738;9.092;2023-02-28T16:40:38;9.07;;;7.97;;
23302;SDS011;11820;48.738;9.092;2023-02-28T16:43:05;9.87;;;7.77;;
23302;SDS011;11820;48.738;9.092;2023-02-28T16:45:35;12.90;;;8.53;;
23302;SDS011;11820;48.738;9.092;2023-02-28T16:48:00;8.93;;;7.80;;
23302;SDS011;11820;48.738;9.092;2023-02-28T16:50:26;10.57;;;8.27;;
23302;SDS011;11820;48.738;9.092;2023-02-28T16:52:54;12.33;;;8.33;;
23302;SDS011;11820;48.738;9.092;2023-02-28T16:55:20;11.03;;;8.47;;
23302;SDS011;11820;48.738;9.092;2023-02-28T16:57:48;9.23;;;7.83;;
23302;SDS011;11820;48.738;9.092;2023-02-28T17:00:17;10.90;;;8.63;;
23302;SDS011;11820;48.738;9.092;2023-02-28T17:02:42;13.80;;;8.50;;
23302;SDS011;11820;48.738;9.092;2023-02-28T17:05:08;9.13;;;7.43;;
23302;SDS011;11820;48.738;9.092;2023-02-28T17:07:36;11.77;;;8.90;;
23302;SDS011;11820;48.738;9.092;2023-02-28T17:10:01;11.70;;;8.83;;
23302;SDS011;11820;48.738;9.092;2023-02-28T17:12:33;9.10;;;7.77;;
23302;SDS011;11820;48.738;9.092;2023-02-28T17:14:58;8.77;;;7.80;;
23302;SDS011;11820;48.738;9.092;2023-02-28T17:17:24;10.07;;;8.63;;
23302;SDS011;11820;48.738;9.092;2023-02-28T17:19:50;10.17;;;9.03;;